Grove City (29D)
Grove City, PA
Field Elevation: 1371
Lat: 41°08.00N  Long: 80°10.00W
CTAF/Unicom Freq: 122.7000
   
     For Weather-by-Phone, call 724 748-3504
Weather Advisories
2015-03-28   03:56 Z
Altimeter 30.01" Hg
Wind 330° @ 10 KT
Gusts 15 KT
Visibility 10 SM
Temperature -8° C (18° F)
Dewpoint -14° C (7° F)
Relative Humidity 64%
Density Altitude --
Condensation Altitude 4,100 feet
Wind Chill: -15° C (5° F)
Wind and Runways
Indicated Runway = 28
Headwind = 6 kt
Crosswind = 8 kt
History
 
 
 
More Info
All DigiWx sites map
NOAA Forecast
 
Airport IQ 5010
(LHV) Lock Haven
(74PN) Altoona Regional
 
about DigiWx
 
FAA Disclaimer: The data displayed is for advisory purposes only and is not to be used for flight planning or operations. For official data, please call 724 748-3504 to hear the current automated AWOS voice message.
  METAR 29D 280356Z AUTO 33010G15KT VIS 10 SM M08/M14 A3001